Time;durP1;ratioP1;P1;durP2;ratioP2;P2;SDS_P1;SDS_P2;PMS_P1;PMS_P2;Temp;Humidity;BMP_temperature;BMP_pressure;BME280_temperature;BME280_humidity;BME280_pressure;Samples;Min_cycle;Max_cycle;Signal;HPM_P1;HPM_P2
2021/03/04 00:00:13;;;;;;;57.13;34.78;;;2.80;99.90;;;;;;5051311;28;20025;-57
2021/03/04 00:02:40;;;;;;;60.15;35.38;;;2.80;99.90;;;;;;5051515;28;20031;-56
2021/03/04 00:05:07;;;;;;;51.80;31.85;;;2.80;99.90;;;;;;5051824;28;20029;-57
2021/03/04 00:07:33;;;;;;;53.00;34.92;;;2.70;99.90;;;;;;5051729;28;20466;-57
2021/03/04 00:09:59;;;;;;;52.10;31.88;;;2.60;99.90;;;;;;5049301;28;20017;-57
2021/03/04 00:12:25;;;;;;;55.95;32.92;;;2.70;99.90;;;;;;5051530;28;20036;-58
2021/03/04 00:14:51;;;;;;;51.22;31.55;;;2.70;99.90;;;;;;5051270;28;20040;-57
2021/03/04 00:17:16;;;;;;;41.78;28.13;;;2.60;99.90;;;;;;5050630;28;20036;-58
2021/03/04 00:19:42;;;;;;;53.40;26.10;;;2.60;99.90;;;;;;5035794;28;20021;-56
2021/03/04 00:22:08;;;;;;;36.88;24.10;;;2.50;99.90;;;;;;5033127;28;20079;-59
2021/03/04 00:24:33;;;;;;;33.20;22.20;;;2.40;99.90;;;;;;5038661;28;20025;-59
2021/03/04 00:26:59;;;;;;;31.88;21.40;;;2.30;99.90;;;;;;5048637;28;20499;-58
2021/03/04 00:29:24;;;;;;;31.55;19.30;;;2.20;99.90;;;;;;5044969;28;20507;-60
2021/03/04 00:31:50;;;;;;;40.95;19.10;;;2.20;99.90;;;;;;5047433;28;20398;-60
2021/03/04 00:34:16;;;;;;;25.73;18.15;;;2.10;99.90;;;;;;5051025;28;20395;-58
2021/03/04 00:36:41;;;;;;;25.77;18.75;;;2.00;99.90;;;;;;5032128;28;20652;-57
2021/03/04 00:39:08;;;;;;;24.02;15.70;;;2.00;99.90;;;;;;5043744;28;20055;-58
2021/03/04 00:41:34;;;;;;;25.90;16.92;;;2.00;99.90;;;;;;5050677;28;20025;-56
2021/03/04 00:44:00;;;;;;;23.23;15.00;;;1.80;99.90;;;;;;5051147;28;20491;-56
2021/03/04 00:46:26;;;;;;;23.77;16.02;;;1.80;99.90;;;;;;5046579;28;20021;-58
2021/03/04 00:48:51;;;;;;;24.88;15.63;;;1.80;99.90;;;;;;5049153;28;20482;-58
2021/03/04 00:51:17;;;;;;;24.85;13.20;;;1.80;99.90;;;;;;5039942;28;20040;-59
2021/03/04 00:53:42;;;;;;;18.73;12.38;;;1.80;99.90;;;;;;5051342;28;20110;-56
2021/03/04 00:56:08;;;;;;;18.33;12.35;;;1.80;99.90;;;;;;5047843;28;20044;-58
2021/03/04 00:58:33;;;;;;;16.30;11.75;;;1.90;99.90;;;;;;5051180;28;20028;-59
2021/03/04 01:00:59;;;;;;;20.17;11.73;;;1.90;99.90;;;;;;5050604;28;20576;-62
2021/03/04 01:03:25;;;;;;;17.67;12.13;;;1.90;99.90;;;;;;5051523;28;20776;-60
2021/03/04 01:05:50;;;;;;;13.27;9.27;;;1.90;99.90;;;;;;5049092;28;20027;-59
2021/03/04 01:08:16;;;;;;;13.93;8.23;;;1.90;99.90;;;;;;5037281;28;20056;-57
2021/03/04 01:10:42;;;;;;;13.02;8.60;;;1.90;99.90;;;;;;5031954;28;20033;-59
2021/03/04 01:13:10;;;;;;;9.63;7.18;;;1.80;99.90;;;;;;5050549;28;20086;-56
2021/03/04 01:15:36;;;;;;;12.70;7.70;;;1.80;99.90;;;;;;5050654;28;20048;-58
2021/03/04 01:18:04;;;;;;;12.38;8.48;;;1.80;99.90;;;;;;5019994;28;20028;-57
2021/03/04 01:20:30;;;;;;;10.57;6.25;;;1.70;99.90;;;;;;5049975;28;20128;-59
2021/03/04 01:22:56;;;;;;;10.45;7.38;;;1.80;99.90;;;;;;5050290;28;20104;-57
2021/03/04 01:25:22;;;;;;;10.13;6.80;;;1.70;99.90;;;;;;5050586;28;20021;-59
2021/03/04 01:27:49;;;;;;;9.68;6.30;;;1.70;99.90;;;;;;5048234;28;20029;-58
2021/03/04 01:30:16;;;;;;;9.98;6.63;;;1.70;99.90;;;;;;5050426;28;20017;-56
2021/03/04 01:32:42;;;;;;;10.02;6.45;;;1.70;99.90;;;;;;5050730;28;20025;-58
2021/03/04 01:35:09;;;;;;;9.35;6.68;;;1.70;99.90;;;;;;5049626;28;20063;-55
2021/03/04 01:37:35;;;;;;;9.15;6.65;;;1.70;99.90;;;;;;5027233;28;20112;-59
2021/03/04 01:40:09;;;;;;;10.15;6.93;;;1.80;99.90;;;;;;5025974;28;20427;-56
2021/03/04 01:42:34;;;;;;;10.10;6.13;;;1.80;99.90;;;;;;5031623;28;20112;-60
2021/03/04 01:45:00;;;;;;;9.55;6.03;;;1.80;99.90;;;;;;5049872;28;20117;-56
2021/03/04 01:47:26;;;;;;;11.95;6.22;;;1.80;99.90;;;;;;5045470;28;20647;-59
2021/03/04 01:49:52;;;;;;;10.38;6.40;;;1.80;99.90;;;;;;5049201;28;20021;-59
2021/03/04 01:52:17;;;;;;;10.20;6.47;;;1.70;99.90;;;;;;5048775;28;20567;-57
2021/03/04 01:54:43;;;;;;;10.70;6.85;;;1.70;99.90;;;;;;5046635;28;20025;-59
2021/03/04 01:57:12;;;;;;;8.32;6.68;;;1.70;99.90;;;;;;5036650;28;20036;-58
2021/03/04 01:59:38;;;;;;;8.63;5.88;;;1.70;99.90;;;;;;5028817;28;20116;-58
2021/03/04 02:02:04;;;;;;;10.80;6.85;;;1.70;99.90;;;;;;5045947;28;20510;-58
2021/03/04 02:04:29;;;;;;;9.63;6.80;;;1.70;99.90;;;;;;5048260;28;20021;-56
2021/03/04 02:07:09;;;;;;;7.82;6.03;;;1.70;99.90;;;;;;5042282;28;20021;-58
2021/03/04 02:09:37;;;;;;;10.35;6.35;;;1.70;99.90;;;;;;5045467;28;20379;-58
2021/03/04 02:12:10;;;;;;;12.20;6.05;;;1.70;99.90;;;;;;5049145;28;20411;-57
2021/03/04 02:14:48;;;;;;;7.13;5.65;;;1.70;99.90;;;;;;5047271;28;20024;-58
2021/03/04 02:17:15;;;;;;;10.13;6.85;;;1.80;99.90;;;;;;5048877;28;20445;-58
2021/03/04 02:19:50;;;;;;;13.38;6.07;;;1.80;99.90;;;;;;5049272;28;20021;-56
2021/03/04 02:22:16;;;;;;;9.38;6.18;;;1.80;99.90;;;;;;5049138;28;20025;-59
2021/03/04 02:24:53;;;;;;;8.45;5.97;;;1.80;99.90;;;;;;5049466;28;20163;-60
2021/03/04 02:27:24;;;;;;;10.02;5.63;;;1.90;99.90;;;;;;5040533;28;20043;-56
2021/03/04 02:30:00;;;;;;;8.18;5.68;;;1.90;99.90;;;;;;5049113;28;20399;-57
2021/03/04 02:32:27;;;;;;;8.15;6.05;;;1.90;99.90;;;;;;5039541;28;20040;-58
2021/03/04 02:35:18;;;;;;;7.72;5.53;;;2.00;99.90;;;;;;5039067;28;20060;-57
2021/03/04 02:37:51;;;;;;;8.38;5.75;;;2.00;99.90;;;;;;5042386;28;20043;-58
2021/03/04 02:40:20;;;;;;;8.18;5.82;;;2.00;99.90;;;;;;5047080;28;20037;-60
2021/03/04 02:42:46;;;;;;;10.30;6.03;;;2.00;99.90;;;;;;5045851;28;20521;-55
2021/03/04 02:45:14;;;;;;;9.35;6.72;;;2.10;99.90;;;;;;5048880;28;20012;-56
2021/03/04 02:47:40;;;;;;;8.27;6.10;;;2.10;99.90;;;;;;5043942;28;20036;-58
2021/03/04 02:50:08;;;;;;;10.55;6.03;;;2.10;99.90;;;;;;5047406;28;20487;-55
2021/03/04 02:52:34;;;;;;;10.98;7.63;;;2.10;99.90;;;;;;5049003;28;20597;-58
2021/03/04 02:55:01;;;;;;;9.45;6.72;;;2.10;99.90;;;;;;5046841;28;20023;-57
2021/03/04 02:57:27;;;;;;;9.32;5.95;;;2.10;99.90;;;;;;5048099;28;20025;-59
2021/03/04 02:59:54;;;;;;;11.95;6.85;;;2.20;99.90;;;;;;5047878;28;20052;-57
2021/03/04 03:02:20;;;;;;;8.82;6.32;;;2.20;99.90;;;;;;5048798;28;20487;-55
2021/03/04 03:04:47;;;;;;;11.57;6.60;;;2.20;99.90;;;;;;5049178;28;20024;-57
2021/03/04 03:07:13;;;;;;;10.02;6.82;;;2.20;99.90;;;;;;5047588;28;20021;-56
2021/03/04 03:09:42;;;;;;;9.57;6.03;;;2.20;99.90;;;;;;5047038;28;20021;-60
2021/03/04 03:12:10;;;;;;;12.35;7.03;;;2.20;99.90;;;;;;5048671;28;20441;-56
2021/03/04 03:14:36;;;;;;;6.15;5.10;;;2.20;99.90;;;;;;5048877;28;20130;-57
2021/03/04 03:17:02;;;;;;;7.97;6.18;;;2.20;99.90;;;;;;5040981;28;20060;-60
2021/03/04 03:19:27;;;;;;;7.03;5.10;;;2.20;99.90;;;;;;5048987;28;20028;-61
2021/03/04 03:21:53;;;;;;;9.48;4.82;;;2.20;99.90;;;;;;5040951;28;20033;-59
2021/03/04 03:24:19;;;;;;;10.57;6.15;;;2.30;99.90;;;;;;5048510;28;20021;-58
2021/03/04 03:26:45;;;;;;;7.03;5.15;;;2.20;99.90;;;;;;5048927;28;20057;-55
2021/03/04 03:29:11;;;;;;;8.48;5.47;;;2.30;99.90;;;;;;5048738;28;20017;-58
2021/03/04 03:31:39;;;;;;;7.70;5.68;;;2.30;99.90;;;;;;5049117;28;20439;-54
2021/03/04 03:34:05;;;;;;;10.13;6.45;;;2.20;99.90;;;;;;5044360;28;20021;-59
2021/03/04 03:36:33;;;;;;;10.63;5.85;;;2.30;99.90;;;;;;5048738;28;20025;-58
2021/03/04 03:39:01;;;;;;;8.00;5.60;;;2.30;99.90;;;;;;5046438;28;20025;-55
2021/03/04 03:41:27;;;;;;;7.70;5.78;;;2.30;99.90;;;;;;5030501;28;20033;-59
2021/03/04 03:43:53;;;;;;;7.88;5.72;;;2.30;99.90;;;;;;5030167;28;20032;-58
2021/03/04 03:46:21;;;;;;;10.98;5.85;;;2.30;99.90;;;;;;5045016;28;20140;-57
2021/03/04 03:48:47;;;;;;;7.88;5.55;;;2.30;99.90;;;;;;5047976;28;20029;-59
2021/03/04 03:51:14;;;;;;;7.57;5.60;;;2.30;99.90;;;;;;5032551;28;20026;-58
2021/03/04 03:53:41;;;;;;;6.72;5.40;;;2.30;99.90;;;;;;5048696;28;20274;-58
2021/03/04 03:56:08;;;;;;;6.72;4.90;;;2.30;99.90;;;;;;5046945;28;20036;-58
2021/03/04 03:58:37;;;;;;;6.82;4.65;;;2.30;99.90;;;;;;5048145;28;20032;-59
2021/03/04 04:01:04;;;;;;;7.00;4.40;;;2.30;99.90;;;;;;5035089;28;20033;-58
2021/03/04 04:03:30;;;;;;;8.43;5.80;;;2.40;99.90;;;;;;5047525;28;20104;-58
2021/03/04 04:05:56;;;;;;;7.32;4.97;;;2.40;99.90;;;;;;5048364;28;20032;-59
2021/03/04 04:08:24;;;;;;;8.10;5.30;;;2.40;99.90;;;;;;5046709;28;21069;-58
2021/03/04 04:10:49;;;;;;;6.75;4.40;;;2.40;99.90;;;;;;5051423;28;20029;-58
2021/03/04 04:13:15;;;;;;;6.63;4.38;;;2.40;99.90;;;;;;5050919;28;20495;-59
2021/03/04 04:15:41;;;;;;;6.60;4.38;;;2.40;99.90;;;;;;5039628;28;20551;-58
2021/03/04 04:18:07;;;;;;;5.85;3.80;;;2.40;99.90;;;;;;5051379;28;20082;-59
2021/03/04 04:20:34;;;;;;;5.20;4.30;;;2.40;99.90;;;;;;5051672;28;20021;-58
2021/03/04 04:23:00;;;;;;;5.57;4.60;;;2.40;99.90;;;;;;5034095;28;20538;-56
2021/03/04 04:25:26;;;;;;;6.38;4.35;;;2.40;99.90;;;;;;5051560;28;20018;-59
2021/03/04 04:27:53;;;;;;;4.15;3.72;;;2.40;99.90;;;;;;5046655;28;20053;-58
2021/03/04 04:30:20;;;;;;;5.40;4.55;;;2.40;99.90;;;;;;5047765;28;20033;-57
2021/03/04 04:32:46;;;;;;;4.25;3.45;;;2.50;99.90;;;;;;5048117;28;20072;-58
2021/03/04 04:35:13;;;;;;;5.13;4.15;;;2.40;99.90;;;;;;5051300;28;20064;-61
2021/03/04 04:37:39;;;;;;;5.93;3.65;;;2.40;99.90;;;;;;5051794;28;20078;-58
2021/03/04 04:40:06;;;;;;;5.88;4.18;;;2.40;99.90;;;;;;5037781;28;20033;-57
2021/03/04 04:42:32;;;;;;;7.00;4.22;;;2.50;99.90;;;;;;5049633;28;20127;-59
2021/03/04 04:44:58;;;;;;;6.55;4.43;;;2.50;99.90;;;;;;5043375;28;20159;-59
2021/03/04 04:47:23;;;;;;;5.60;3.42;;;2.50;99.90;;;;;;5051151;28;20067;-57
2021/03/04 04:49:49;;;;;;;8.82;4.35;;;2.50;99.90;;;;;;5047351;28;20126;-59
2021/03/04 04:52:15;;;;;;;7.28;5.03;;;2.50;99.90;;;;;;5050866;28;20178;-57
2021/03/04 04:54:40;;;;;;;5.82;4.32;;;2.50;99.90;;;;;;5050949;28;20146;-60
2021/03/04 04:57:07;;;;;;;7.10;4.60;;;2.50;99.90;;;;;;5047621;28;20376;-56
2021/03/04 04:59:33;;;;;;;9.88;4.50;;;2.50;99.90;;;;;;5045498;28;20025;-59
2021/03/04 05:01:58;;;;;;;6.18;4.43;;;2.50;99.90;;;;;;5051142;28;20037;-59
2021/03/04 05:04:24;;;;;;;4.65;3.72;;;2.60;99.90;;;;;;5044690;28;20475;-57
2021/03/04 05:06:49;;;;;;;4.88;3.58;;;2.60;99.90;;;;;;5049516;28;20029;-55
2021/03/04 05:09:15;;;;;;;4.88;4.07;;;2.50;99.90;;;;;;5048442;28;20036;-58
2021/03/04 05:11:40;;;;;;;5.75;3.97;;;2.60;99.90;;;;;;5050721;28;20131;-59
2021/03/04 05:14:06;;;;;;;5.43;4.15;;;2.60;99.90;;;;;;5050946;28;20071;-59
2021/03/04 05:16:31;;;;;;;6.15;4.13;;;2.60;99.90;;;;;;5038759;28;20029;-58
2021/03/04 05:18:57;;;;;;;5.43;3.92;;;2.60;99.90;;;;;;5050140;28;20113;-59
2021/03/04 05:21:23;;;;;;;4.85;4.18;;;2.60;99.90;;;;;;5049522;28;20033;-57
2021/03/04 05:23:48;;;;;;;4.32;3.75;;;2.60;99.90;;;;;;5049857;28;20021;-60
2021/03/04 05:26:14;;;;;;;3.30;3.00;;;2.60;99.90;;;;;;5049936;28;20063;-57
2021/03/04 05:28:39;;;;;;;4.90;3.90;;;2.60;99.90;;;;;;5049136;28;20371;-58
2021/03/04 05:31:05;;;;;;;4.28;3.25;;;2.70;99.90;;;;;;5049835;28;20037;-57
2021/03/04 05:33:31;;;;;;;4.32;3.13;;;2.60;99.90;;;;;;5049833;28;20028;-58
2021/03/04 05:35:56;;;;;;;5.55;3.30;;;2.60;99.90;;;;;;5044664;28;20155;-62
2021/03/04 05:38:22;;;;;;;5.43;3.53;;;2.60;99.90;;;;;;5045385;28;20036;-60
2021/03/04 05:40:47;;;;;;;8.88;3.60;;;2.60;99.90;;;;;;5033604;28;20583;-58
2021/03/04 05:43:14;;;;;;;3.70;3.40;;;2.70;99.90;;;;;;5049516;28;20402;-55
2021/03/04 05:45:41;;;;;;;6.78;3.88;;;2.60;99.90;;;;;;5041025;28;20033;-58
2021/03/04 05:48:08;;;;;;;3.85;3.40;;;2.60;99.90;;;;;;5047603;28;20017;-60
2021/03/04 05:50:37;;;;;;;5.10;3.25;;;2.70;99.90;;;;;;5041253;28;20542;-59
2021/03/04 05:53:12;;;;;;;4.75;3.35;;;2.70;99.90;;;;;;5044911;28;20430;-56
2021/03/04 05:55:39;;;;;;;3.85;3.03;;;2.70;99.90;;;;;;5049050;28;20037;-58
2021/03/04 05:58:05;;;;;;;6.40;4.10;;;2.70;99.90;;;;;;5048872;28;20033;-60
2021/03/04 06:00:31;;;;;;;4.30;3.22;;;2.80;99.90;;;;;;5046595;28;20032;-58
2021/03/04 06:02:57;;;;;;;5.13;3.42;;;2.80;99.90;;;;;;5042293;28;20395;-60
2021/03/04 06:05:22;;;;;;;5.57;3.10;;;2.80;99.90;;;;;;5048424;28;20025;-59
2021/03/04 06:07:48;;;;;;;5.68;3.53;;;2.70;99.90;;;;;;5043390;28;20032;-58
2021/03/04 06:10:15;;;;;;;4.40;3.58;;;2.70;99.90;;;;;;5046924;28;20091;-58
2021/03/04 06:12:41;;;;;;;3.50;3.20;;;2.70;99.90;;;;;;5071085;22;20546;-55
2021/03/04 06:15:09;;;;;;;9.40;3.05;;;2.80;99.90;;;;;;5051737;28;20095;-56
2021/03/04 06:17:35;;;;;;;4.15;3.63;;;2.80;99.90;;;;;;5060027;28;20033;-58
2021/03/04 06:20:07;;;;;;;4.40;3.30;;;2.80;99.90;;;;;;5050159;28;20104;-56
2021/03/04 06:22:37;;;;;;;5.85;3.03;;;2.80;99.90;;;;;;5059239;28;20381;-53
2021/03/04 06:25:07;;;;;;;6.10;3.38;;;2.80;99.90;;;;;;5050119;28;20029;-54
2021/03/04 06:27:35;;;;;;;4.35;3.05;;;2.80;99.90;;;;;;5049606;28;20070;-59
2021/03/04 06:30:05;;;;;;;5.38;3.53;;;2.80;99.90;;;;;;5049348;28;20544;-57
2021/03/04 06:32:31;;;;;;;5.20;3.30;;;2.80;99.90;;;;;;5048699;28;20021;-53
2021/03/04 06:35:05;;;;;;;3.85;3.30;;;2.80;99.90;;;;;;5049984;28;20060;-56
2021/03/04 06:37:33;;;;;;;4.97;3.20;;;2.80;99.90;;;;;;5064523;28;20074;-56
2021/03/04 06:39:58;;;;;;;7.32;3.95;;;2.80;99.90;;;;;;5067215;28;20086;-59
2021/03/04 06:42:24;;;;;;;6.15;3.08;;;2.90;99.90;;;;;;5035024;28;20034;-55
2021/03/04 06:44:51;;;;;;;3.63;3.00;;;2.90;99.90;;;;;;5045867;28;20040;-58
2021/03/04 06:47:34;;;;;;;5.93;3.28;;;2.90;99.90;;;;;;5051466;28;20571;-58
2021/03/04 06:50:00;;;;;;;4.00;3.10;;;2.90;99.90;;;;;;5046118;28;20029;-57
2021/03/04 06:52:30;;;;;;;3.78;3.15;;;3.00;99.90;;;;;;5048573;28;20077;-56
2021/03/04 06:55:08;;;;;;;4.07;2.90;;;2.90;99.90;;;;;;5048281;28;20017;-59
2021/03/04 06:57:34;;;;;;;9.65;5.72;;;3.00;99.90;;;;;;5047738;28;20074;-58
2021/03/04 06:59:59;;;;;;;7.45;4.85;;;3.00;99.90;;;;;;5053145;28;20460;-53
2021/03/04 07:02:29;;;;;;;5.88;3.40;;;3.00;99.90;;;;;;5034383;28;20028;-56
2021/03/04 07:04:59;;;;;;;5.22;3.50;;;3.00;99.90;;;;;;5051778;28;20021;-57
2021/03/04 07:07:27;;;;;;;5.10;3.33;;;3.10;99.90;;;;;;5066438;28;20031;-57
2021/03/04 07:09:55;;;;;;;4.35;2.83;;;3.10;99.90;;;;;;5050533;28;20019;-58
2021/03/04 07:12:22;;;;;;;6.88;3.40;;;3.10;99.90;;;;;;5047080;28;20116;-56
2021/03/04 07:14:49;;;;;;;4.93;3.08;;;3.10;99.90;;;;;;5045411;28;20024;-59
2021/03/04 07:17:16;;;;;;;5.68;3.53;;;3.20;99.90;;;;;;5036765;28;20028;-56
2021/03/04 07:19:49;;;;;;;3.35;2.80;;;3.20;99.90;;;;;;5048294;28;20104;-54
2021/03/04 07:22:19;;;;;;;3.50;3.00;;;3.20;99.90;;;;;;5048845;28;20035;-55
2021/03/04 07:24:47;;;;;;;10.07;3.05;;;3.20;99.90;;;;;;5041328;28;20025;-56
2021/03/04 07:27:15;;;;;;;13.55;7.60;;;3.30;99.90;;;;;;5021899;28;20025;-60
2021/03/04 07:29:44;;;;;;;10.30;4.97;;;3.30;99.90;;;;;;5030094;28;20013;-57
2021/03/04 07:32:15;;;;;;;5.25;3.67;;;3.30;99.90;;;;;;5017198;28;20024;-56
2021/03/04 07:34:41;;;;;;;7.07;3.05;;;3.30;99.90;;;;;;5028761;28;20369;-54
2021/03/04 07:37:09;;;;;;;6.80;5.63;;;3.40;99.90;;;;;;5029136;28;20431;-55
2021/03/04 07:39:39;;;;;;;8.57;4.97;;;3.40;99.90;;;;;;5027595;28;20034;-57
2021/03/04 07:42:21;;;;;;;12.73;6.05;;;3.40;99.90;;;;;;5041513;28;20137;-54
2021/03/04 07:44:47;;;;;;;5.50;3.97;;;3.50;99.90;;;;;;5035165;28;20475;-58
2021/03/04 07:47:13;;;;;;;6.68;4.07;;;3.50;99.90;;;;;;5037855;28;20025;-56
2021/03/04 07:49:43;;;;;;;9.02;3.63;;;3.50;99.90;;;;;;5036384;28;20090;-56
2021/03/04 07:52:19;;;;;;;5.50;3.60;;;3.50;99.90;;;;;;5032664;28;20033;-54
2021/03/04 07:54:47;;;;;;;6.80;3.67;;;3.50;99.90;;;;;;5034305;28;20341;-57
2021/03/04 07:57:16;;;;;;;8.02;3.50;;;3.60;99.90;;;;;;5018789;28;20025;-56
2021/03/04 07:59:51;;;;;;;7.25;2.67;;;3.60;99.90;;;;;;5048270;28;20399;-56
2021/03/04 08:02:23;;;;;;;7.07;3.85;;;3.60;99.90;;;;;;5054730;28;20372;-58
2021/03/04 08:04:49;;;;;;;4.75;3.33;;;3.60;99.90;;;;;;5026171;28;20032;-57
2021/03/04 08:07:27;;;;;;;5.85;2.80;;;3.70;99.90;;;;;;5036085;28;20116;-52
2021/03/04 08:10:05;;;;;;;4.35;2.80;;;3.70;99.90;;;;;;5038115;28;20028;-56
2021/03/04 08:12:31;;;;;;;7.20;3.67;;;3.70;99.90;;;;;;5051594;28;20108;-57
2021/03/04 08:14:58;;;;;;;6.95;2.95;;;3.70;99.90;;;;;;5051136;28;20113;-57
2021/03/04 08:17:37;;;;;;;3.42;2.17;;;3.70;99.90;;;;;;5051323;28;20040;-57
2021/03/04 08:20:09;;;;;;;4.25;3.40;;;3.80;99.90;;;;;;5051802;28;20021;-56
2021/03/04 08:22:49;;;;;;;6.30;2.88;;;3.80;99.90;;;;;;5034413;28;20028;-56
2021/03/04 08:25:23;;;;;;;9.98;3.45;;;3.90;99.90;;;;;;5032600;28;20056;-57
2021/03/04 08:27:50;;;;;;;3.58;2.63;;;3.80;99.90;;;;;;5051826;28;20473;-55
2021/03/04 08:30:28;;;;;;;5.75;3.13;;;3.90;99.90;;;;;;5052535;28;20024;-56
2021/03/04 08:32:55;;;;;;;5.60;3.20;;;3.90;99.90;;;;;;5060580;28;20033;-55
2021/03/04 08:35:22;;;;;;;7.30;2.88;;;4.00;99.90;;;;;;5051631;28;20074;-56
2021/03/04 08:38:09;;;;;;;5.72;2.88;;;3.90;99.90;;;;;;5051644;28;20683;-56
2021/03/04 08:40:42;;;;;;;3.90;2.67;;;4.00;99.90;;;;;;5045997;28;20527;-54
2021/03/04 08:43:29;;;;;;;8.68;3.28;;;4.00;99.90;;;;;;5047535;28;20064;-53
2021/03/04 08:46:06;;;;;;;7.25;2.83;;;4.00;99.90;;;;;;5050251;28;20036;-53
2021/03/04 08:48:32;;;;;;;5.07;3.40;;;4.00;99.90;;;;;;5053594;28;20112;-56
2021/03/04 08:51:03;;;;;;;4.78;2.70;;;4.00;99.90;;;;;;5044958;28;20023;-57
2021/03/04 08:53:31;;;;;;;6.63;2.50;;;4.00;99.90;;;;;;5046413;28;20021;-54
2021/03/04 08:56:00;;;;;;;7.05;3.40;;;4.10;99.90;;;;;;5050480;28;20024;-51
2021/03/04 08:58:27;;;;;;;5.05;2.80;;;4.10;99.90;;;;;;5031397;28;20361;-53
2021/03/04 09:01:01;;;;;;;6.68;2.92;;;4.10;99.90;;;;;;5033082;28;20415;-52
2021/03/04 09:03:34;;;;;;;3.53;2.65;;;4.20;99.90;;;;;;5042757;28;20037;-57
2021/03/04 09:06:16;;;;;;;6.95;3.03;;;4.20;99.90;;;;;;5046165;28;20129;-54
2021/03/04 09:08:45;;;;;;;5.10;2.78;;;4.20;99.90;;;;;;5043189;28;20025;-53
2021/03/04 09:11:28;;;;;;;6.38;3.10;;;4.30;99.90;;;;;;5045065;28;20028;-57
2021/03/04 09:14:07;;;;;;;5.97;2.78;;;4.30;99.90;;;;;;5039682;28;20443;-55
2021/03/04 09:16:50;;;;;;;3.50;2.72;;;4.40;99.90;;;;;;5045090;28;20484;-56
2021/03/04 09:19:30;;;;;;;6.82;2.65;;;4.50;99.90;;;;;;5050018;28;20033;-53
2021/03/04 09:22:04;;;;;;;4.72;2.58;;;4.50;99.90;;;;;;5019204;28;20036;-57
2021/03/04 09:24:35;;;;;;;7.30;2.58;;;4.50;99.90;;;;;;5051115;28;20032;-55
2021/03/04 09:27:05;;;;;;;4.40;3.00;;;4.50;99.90;;;;;;5055482;28;20052;-54
2021/03/04 09:29:32;;;;;;;8.07;3.17;;;4.60;99.90;;;;;;5058030;28;20017;-55
2021/03/04 09:31:58;;;;;;;7.05;3.00;;;4.60;99.90;;;;;;5055466;28;20025;-55
2021/03/04 09:34:35;;;;;;;5.40;2.88;;;4.70;99.90;;;;;;5043275;28;20028;-56
2021/03/04 09:37:09;;;;;;;5.93;2.55;;;4.70;99.90;;;;;;5046391;28;20555;-55
2021/03/04 09:39:46;;;;;;;10.57;3.33;;;4.80;99.90;;;;;;5048726;28;20032;-55
2021/03/04 09:42:16;;;;;;;8.40;3.65;;;4.90;99.90;;;;;;5057633;28;20028;-56
2021/03/04 09:44:55;;;;;;;9.07;3.33;;;4.90;99.90;;;;;;5051391;28;20099;-51
2021/03/04 09:47:26;;;;;;;3.97;2.78;;;4.90;99.90;;;;;;5053239;28;20118;-52
2021/03/04 09:49:52;;;;;;;11.82;3.65;;;4.90;99.90;;;;;;5050794;28;20040;-57
2021/03/04 09:52:19;;;;;;;5.22;2.78;;;5.00;99.90;;;;;;5038043;28;20029;-55
2021/03/04 09:54:45;;;;;;;8.15;3.08;;;5.00;99.90;;;;;;5055566;28;20060;-54
2021/03/04 09:57:18;;;;;;;8.52;3.03;;;5.00;99.90;;;;;;5044673;28;20061;-56
2021/03/04 09:59:45;;;;;;;9.15;3.22;;;5.10;99.90;;;;;;5038378;28;20044;-56
2021/03/04 10:02:10;;;;;;;5.15;3.20;;;5.10;99.90;;;;;;5046912;28;20526;-56
2021/03/04 10:04:36;;;;;;;6.63;3.30;;;5.20;99.90;;;;;;5041711;28;20027;-55
2021/03/04 10:07:12;;;;;;;3.50;2.97;;;5.20;99.90;;;;;;5045706;28;20029;-56
2021/03/04 10:09:38;;;;;;;4.25;2.55;;;5.30;99.90;;;;;;5046755;28;20033;-56
2021/03/04 10:12:04;;;;;;;9.23;2.70;;;5.30;99.90;;;;;;5029375;28;20087;-54
2021/03/04 10:14:30;;;;;;;5.57;2.22;;;5.40;99.90;;;;;;5042689;28;20608;-54
2021/03/04 10:16:56;;;;;;;9.15;3.97;;;5.40;99.90;;;;;;5030386;28;20040;-56
2021/03/04 10:19:21;;;;;;;23.58;10.63;;;5.50;99.90;;;;;;5050742;28;20376;-52
2021/03/04 10:21:47;;;;;;;13.45;6.10;;;5.50;99.90;;;;;;5053365;28;20028;-56
2021/03/04 10:24:15;;;;;;;10.50;5.15;;;5.60;99.90;;;;;;5055711;28;20028;-57
2021/03/04 10:26:41;;;;;;;14.18;4.55;;;5.50;99.90;;;;;;5054595;28;20021;-57
2021/03/04 10:29:07;;;;;;;7.88;2.75;;;5.60;99.90;;;;;;5048141;28;20029;-56
2021/03/04 10:31:32;;;;;;;14.60;8.60;;;5.60;99.90;;;;;;5049215;28;20082;-57
2021/03/04 10:33:58;;;;;;;9.40;3.88;;;5.60;99.90;;;;;;5033590;28;20582;-56
2021/03/04 10:36:24;;;;;;;10.35;3.72;;;5.60;99.90;;;;;;5058283;28;20106;-56
2021/03/04 10:38:49;;;;;;;5.97;2.90;;;5.70;99.90;;;;;;5048853;28;20024;-55
2021/03/04 10:41:15;;;;;;;6.75;3.03;;;5.70;99.90;;;;;;5048581;28;20033;-54
2021/03/04 10:43:41;;;;;;;10.85;3.88;;;5.70;99.90;;;;;;5048587;28;20096;-51
2021/03/04 10:46:06;;;;;;;8.07;2.72;;;5.70;99.90;;;;;;5030551;28;20064;-53
2021/03/04 10:48:32;;;;;;;7.95;2.88;;;5.80;99.90;;;;;;5030842;28;20021;-51
2021/03/04 10:50:57;;;;;;;9.90;2.42;;;5.80;99.90;;;;;;5048300;28;20098;-56
2021/03/04 10:53:23;;;;;;;4.53;2.13;;;5.70;99.90;;;;;;5048813;28;20080;-55
2021/03/04 10:55:49;;;;;;;11.23;3.03;;;5.70;99.90;;;;;;5048745;28;20032;-55
2021/03/04 10:58:14;;;;;;;6.97;2.72;;;5.70;99.90;;;;;;5050391;28;20415;-55
2021/03/04 11:00:41;;;;;;;4.35;2.35;;;5.70;99.90;;;;;;5041834;28;20055;-55
2021/03/04 11:03:07;;;;;;;7.75;2.95;;;5.70;99.90;;;;;;5031822;28;20040;-53
2021/03/04 11:05:32;;;;;;;4.22;2.15;;;5.70;99.90;;;;;;5030453;28;20025;-54
2021/03/04 11:07:58;;;;;;;4.88;2.28;;;5.80;99.90;;;;;;5048605;28;20025;-57
2021/03/04 11:10:24;;;;;;;5.32;2.80;;;5.80;99.90;;;;;;5048359;28;20025;-53
2021/03/04 11:12:50;;;;;;;9.95;2.40;;;5.80;99.90;;;;;;5048079;28;20040;-52
2021/03/04 11:15:16;;;;;;;7.50;3.15;;;5.90;99.90;;;;;;5038352;28;20531;-55
2021/03/04 11:17:42;;;;;;;7.28;3.22;;;6.00;99.90;;;;;;5039185;28;20055;-53
2021/03/04 11:20:08;;;;;;;6.88;3.63;;;6.00;99.90;;;;;;5046646;28;20036;-55
2021/03/04 11:22:34;;;;;;;11.65;3.85;;;6.20;99.90;;;;;;5036158;28;20036;-55
2021/03/04 11:24:59;;;;;;;10.85;4.03;;;6.20;99.90;;;;;;5052401;28;20029;-54
2021/03/04 11:27:25;;;;;;;13.57;4.00;;;6.20;99.90;;;;;;5052206;28;20025;-55
2021/03/04 11:29:51;;;;;;;5.43;3.75;;;6.10;99.90;;;;;;5051974;28;20419;-56
2021/03/04 11:32:16;;;;;;;10.38;4.38;;;6.30;99.90;;;;;;5052276;28;20057;-54
2021/03/04 11:34:42;;;;;;;8.82;3.78;;;6.30;99.90;;;;;;5049533;28;20025;-55
2021/03/04 11:37:09;;;;;;;6.82;4.10;;;6.30;99.90;;;;;;5033247;28;20028;-55
2021/03/04 11:39:34;;;;;;;13.05;4.45;;;6.30;99.90;;;;;;5026408;28;20032;-52
2021/03/04 11:42:00;;;;;;;7.18;4.20;;;6.40;99.90;;;;;;5049964;28;20041;-57
2021/03/04 11:44:25;;;;;;;9.70;4.38;;;6.40;99.90;;;;;;5052173;28;20020;-56
2021/03/04 11:46:51;;;;;;;22.25;4.80;;;6.30;99.90;;;;;;5034405;28;20678;-57
2021/03/04 11:49:17;;;;;;;6.68;3.90;;;6.40;99.90;;;;;;5051912;28;20597;-54
2021/03/04 11:51:42;;;;;;;11.63;5.05;;;6.40;99.90;;;;;;5051983;28;20028;-53
2021/03/04 11:54:08;;;;;;;10.85;4.97;;;6.40;99.90;;;;;;5034826;28;20124;-57
2021/03/04 11:56:34;;;;;;;10.82;5.03;;;6.40;99.90;;;;;;5052029;28;20040;-53
2021/03/04 11:59:05;;;;;;;9.55;5.57;;;6.40;99.90;;;;;;5059854;28;20032;-55
2021/03/04 12:01:31;;;;;;;12.18;5.00;;;6.40;99.90;;;;;;5036619;28;20443;-52
2021/03/04 12:03:56;;;;;;;7.40;4.43;;;6.40;99.90;;;;;;5051562;28;20029;-54
2021/03/04 12:06:22;;;;;;;10.65;4.85;;;6.30;99.90;;;;;;5051676;28;20029;-54
2021/03/04 12:08:47;;;;;;;9.73;5.35;;;6.30;99.90;;;;;;5051627;28;20029;-57
2021/03/04 12:13:41;;;;;;;10.45;5.00;;;6.30;99.90;;;;;;5008500;28;20042;-61
2021/03/04 12:16:08;;;;;;;5.85;4.18;;;6.40;99.90;;;;;;5011308;28;20388;-60
2021/03/04 12:18:35;;;;;;;9.13;4.43;;;6.50;99.90;;;;;;5012146;28;20029;-59
2021/03/04 12:21:01;;;;;;;7.35;4.30;;;6.50;99.90;;;;;;5011868;28;20060;-58
2021/03/04 12:23:27;;;;;;;8.48;5.05;;;6.50;99.90;;;;;;5010312;28;20054;-60
2021/03/04 12:25:53;;;;;;;11.18;4.75;;;6.50;99.90;;;;;;5007853;28;20022;-60
2021/03/04 12:28:18;;;;;;;9.02;4.15;;;6.40;99.90;;;;;;5008776;28;20026;-61
2021/03/04 12:30:45;;;;;;;6.78;4.60;;;6.40;99.90;;;;;;5009356;28;20041;-61
2021/03/04 12:33:10;;;;;;;9.25;4.57;;;6.30;99.90;;;;;;5010969;28;20033;-61
2021/03/04 12:35:36;;;;;;;11.13;5.15;;;6.40;99.90;;;;;;5011224;28;20495;-59
2021/03/04 12:38:01;;;;;;;9.02;4.10;;;6.30;99.90;;;;;;4989365;28;20429;-58
2021/03/04 12:40:28;;;;;;;8.77;4.13;;;6.40;99.90;;;;;;4995021;28;20029;-60
2021/03/04 12:42:54;;;;;;;6.32;4.07;;;6.40;99.90;;;;;;5005643;28;20026;-58
2021/03/04 12:45:19;;;;;;;6.22;3.25;;;6.30;99.90;;;;;;5009414;28;20014;-61
2021/03/04 12:47:45;;;;;;;12.73;4.00;;;6.30;99.90;;;;;;5010816;28;20022;-60
2021/03/04 12:50:11;;;;;;;7.72;4.10;;;6.40;99.90;;;;;;4992979;28;20025;-58
2021/03/04 12:52:37;;;;;;;7.30;4.70;;;6.40;99.90;;;;;;5008138;28;20532;-61
2021/03/04 12:55:03;;;;;;;9.05;3.88;;;6.40;99.90;;;;;;5005333;28;20041;-60
2021/03/04 12:57:28;;;;;;;6.78;3.72;;;6.30;99.90;;;;;;5004707;28;20030;-59